createdAt,value
2022-11-29T00:01:35.272Z,3.17
2022-11-29T00:04:03.059Z,3.60
2022-11-29T00:06:31.982Z,3.47
2022-11-29T00:09:06.532Z,3.60
2022-11-29T00:11:54.054Z,3.50
2022-11-29T00:14:21.985Z,3.90
2022-11-29T00:16:56.843Z,3.50
2022-11-29T00:19:23.799Z,3.47
2022-11-29T00:21:51.113Z,3.60
2022-11-29T00:24:18.125Z,3.47
2022-11-29T00:26:44.951Z,3.80
2022-11-29T00:29:12.898Z,3.70
2022-11-29T00:31:40.788Z,3.17
2022-11-29T00:34:10.078Z,3.63
2022-11-29T00:36:36.872Z,3.60
2022-11-29T00:39:05.151Z,3.60
2022-11-29T00:41:32.200Z,3.83
2022-11-29T00:43:58.953Z,3.70
2022-11-29T00:46:25.751Z,3.55
2022-11-29T00:48:52.538Z,3.75
2022-11-29T00:51:19.281Z,3.33
2022-11-29T00:53:46.064Z,3.75
2022-11-29T00:56:12.807Z,3.97
2022-11-29T00:58:39.778Z,3.90
2022-11-29T01:01:06.596Z,3.78
2022-11-29T01:03:33.416Z,3.85
2022-11-29T01:06:05.887Z,3.80
2022-11-29T01:08:32.636Z,3.67
2022-11-29T01:11:05.320Z,3.92
2022-11-29T01:13:32.279Z,3.63
2022-11-29T01:15:59.205Z,3.85
2022-11-29T01:18:26.721Z,4.00
2022-11-29T01:21:06.464Z,3.85
2022-11-29T01:23:34.371Z,3.58
2022-11-29T01:26:04.962Z,3.47
2022-11-29T01:28:31.760Z,3.70
2022-11-29T01:30:58.643Z,4.00
2022-11-29T01:33:25.478Z,3.50
2022-11-29T01:35:55.077Z,4.20
2022-11-29T01:38:22.377Z,3.90
2022-11-29T01:40:59.210Z,4.07
2022-11-29T01:43:26.123Z,4.15
2022-11-29T01:45:53.055Z,3.85
2022-11-29T01:48:40.383Z,3.60
2022-11-29T01:51:07.487Z,3.80
2022-11-29T01:53:34.199Z,3.67
2022-11-29T01:56:04.191Z,3.88
2022-11-29T01:58:35.133Z,3.55
2022-11-29T02:01:01.972Z,3.92
2022-11-29T02:03:28.756Z,3.70
2022-11-29T02:05:55.818Z,3.70
2022-11-29T02:08:31.738Z,3.40
2022-11-29T02:11:23.697Z,3.80
2022-11-29T02:13:56.218Z,3.38
2022-11-29T02:16:28.296Z,3.58
2022-11-29T02:19:07.602Z,3.90
2022-11-29T02:21:43.223Z,4.07
2022-11-29T02:24:16.153Z,3.55
2022-11-29T02:26:57.983Z,3.30
2022-11-29T02:29:27.636Z,3.67
2022-11-29T02:32:19.266Z,4.00
2022-11-29T02:35:17.061Z,3.90
2022-11-29T02:40:56.414Z,4.10
2022-11-29T02:44:00.823Z,3.85
2022-11-29T02:46:43.827Z,3.70
2022-11-29T02:49:22.805Z,3.60
2022-11-29T02:51:57.122Z,3.65
2022-11-29T02:54:41.992Z,4.15
2022-11-29T02:57:27.362Z,3.60
2022-11-29T03:00:08.345Z,3.67
2022-11-29T03:02:51.944Z,3.92
2022-11-29T03:05:47.141Z,3.72
2022-11-29T03:08:32.451Z,3.95
2022-11-29T03:11:08.356Z,4.00
2022-11-29T03:13:53.771Z,3.80
2022-11-29T03:16:29.792Z,3.70
2022-11-29T03:19:26.901Z,3.95
2022-11-29T03:22:09.433Z,3.90
2022-11-29T03:24:45.267Z,4.15
2022-11-29T03:27:16.777Z,3.92
2022-11-29T03:29:53.509Z,3.38
2022-11-29T03:32:33.083Z,3.75
2022-11-29T03:35:04.639Z,4.05
2022-11-29T03:38:07.949Z,3.80
2022-11-29T03:40:59.797Z,3.70
2022-11-29T03:43:44.541Z,3.80
2022-11-29T03:46:25.044Z,3.63
2022-11-29T03:49:01.475Z,3.72
2022-11-29T03:51:49.335Z,3.92
2022-11-29T03:57:03.471Z,3.67
2022-11-29T03:59:30.333Z,3.87
2022-11-29T04:02:09.000Z,3.90
2022-11-29T04:04:53.078Z,3.53
2022-11-29T04:07:19.804Z,3.80
2022-11-29T04:10:04.338Z,3.30
2022-11-29T04:12:46.378Z,3.95
2022-11-29T04:15:48.024Z,3.60
2022-11-29T04:18:57.163Z,3.10
2022-11-29T04:21:46.975Z,3.67
2022-11-29T04:24:40.271Z,3.50
2022-11-29T04:27:35.134Z,3.35
2022-11-29T04:30:02.048Z,3.45
2022-11-29T04:32:53.455Z,3.92
2022-11-29T04:35:25.968Z,3.58
2022-11-29T04:38:26.020Z,3.38
2022-11-29T04:41:13.873Z,3.45
2022-11-29T04:46:35.589Z,3.45
2022-11-29T04:49:08.370Z,3.70
2022-11-29T04:51:58.870Z,3.55
2022-11-29T04:54:43.336Z,3.30
2022-11-29T04:57:35.781Z,3.60
2022-11-29T05:00:15.501Z,3.38
2022-11-29T05:02:51.552Z,3.83
2022-11-29T05:05:48.408Z,3.30
2022-11-29T05:08:27.402Z,3.45
2022-11-29T05:11:05.680Z,3.33
2022-11-29T05:13:49.435Z,3.38
2022-11-29T05:16:31.026Z,3.53
2022-11-29T05:19:25.747Z,3.03
2022-11-29T05:22:01.302Z,3.42
2022-11-29T05:24:58.189Z,3.30
2022-11-29T05:28:10.257Z,3.40
2022-11-29T05:31:14.791Z,3.60
2022-11-29T05:34:03.215Z,3.08
2022-11-29T05:37:07.493Z,3.30
2022-11-29T05:39:37.452Z,3.30
2022-11-29T05:42:27.987Z,3.10
2022-11-29T05:45:07.231Z,3.08
2022-11-29T05:48:00.291Z,3.50
2022-11-29T05:50:39.866Z,3.08
2022-11-29T05:53:35.314Z,2.67
2022-11-29T05:56:40.401Z,2.90
2022-11-29T05:59:15.283Z,3.28
2022-11-29T06:02:02.933Z,3.22
2022-11-29T06:04:54.842Z,3.20
2022-11-29T06:07:35.681Z,2.95
2022-11-29T06:10:13.488Z,3.10
2022-11-29T06:12:42.650Z,2.80
2022-11-29T06:16:06.200Z,3.22
2022-11-29T06:18:56.508Z,3.05
2022-11-29T06:21:48.201Z,2.80
2022-11-29T06:24:25.775Z,2.88
2022-11-29T06:29:43.518Z,2.97
2022-11-29T06:32:25.423Z,3.08
2022-11-29T06:35:25.549Z,3.10
2022-11-29T06:37:58.461Z,3.05
2022-11-29T06:40:25.650Z,2.80
2022-11-29T06:42:54.734Z,2.90
2022-11-29T06:45:22.086Z,2.63
2022-11-29T06:48:00.559Z,2.80
2022-11-29T06:50:33.491Z,3.03
2022-11-29T06:53:08.345Z,2.90
2022-11-29T06:55:52.861Z,2.75
2022-11-29T06:58:50.094Z,2.92
2022-11-29T07:01:47.905Z,2.83
2022-11-29T07:04:32.895Z,2.75
2022-11-29T07:06:59.923Z,2.80
2022-11-29T07:09:33.041Z,2.90
2022-11-29T07:12:00.119Z,2.83
2022-11-29T07:14:27.118Z,2.70
2022-11-29T07:17:06.628Z,2.67
2022-11-29T07:19:51.116Z,3.15
2022-11-29T07:22:26.716Z,2.83
2022-11-29T07:25:29.145Z,2.72
2022-11-29T07:28:23.547Z,2.80
2022-11-29T07:31:02.370Z,2.60
2022-11-29T07:33:29.128Z,2.60
2022-11-29T07:36:25.868Z,2.63
2022-11-29T07:39:10.917Z,2.70
2022-11-29T07:41:46.850Z,2.70
2022-11-29T07:44:20.131Z,2.83
2022-11-29T07:46:47.024Z,3.45
2022-11-29T07:49:13.868Z,2.83
2022-11-29T07:51:40.661Z,2.58
2022-11-29T07:54:07.957Z,2.80
2022-11-29T07:56:34.686Z,2.63
2022-11-29T07:59:01.982Z,2.70
2022-11-29T08:01:28.779Z,2.73
2022-11-29T08:03:55.482Z,2.65
2022-11-29T08:06:26.083Z,2.70
2022-11-29T08:08:52.872Z,2.72
2022-11-29T08:11:20.039Z,2.72
2022-11-29T08:13:46.705Z,2.85
2022-11-29T08:16:19.773Z,2.80
2022-11-29T08:18:46.955Z,2.95
2022-11-29T08:21:18.005Z,2.85
2022-11-29T08:23:46.293Z,3.00
2022-11-29T08:26:14.492Z,2.75
2022-11-29T08:31:11.020Z,2.80
2022-11-29T08:33:39.554Z,3.00
2022-11-29T08:36:08.974Z,3.08
2022-11-29T08:38:35.740Z,2.80
2022-11-29T08:41:03.433Z,2.80
2022-11-29T08:43:31.541Z,2.83
2022-11-29T08:48:28.311Z,2.90
2022-11-29T08:50:56.761Z,3.03
2022-11-29T08:53:43.382Z,2.65
2022-11-29T08:57:10.294Z,2.90
2022-11-29T08:59:10.448Z,2.60
2022-11-29T09:01:37.181Z,2.85
2022-11-29T09:04:07.808Z,2.67
2022-11-29T09:06:39.526Z,2.60
2022-11-29T09:09:06.764Z,2.92
2022-11-29T09:11:35.222Z,2.97
2022-11-29T09:14:07.269Z,3.00
2022-11-29T09:16:36.840Z,3.45
2022-11-29T09:19:05.080Z,3.00
2022-11-29T09:24:01.260Z,3.03
2022-11-29T09:26:33.415Z,2.92
2022-11-29T09:29:02.106Z,2.97
2022-11-29T09:31:30.249Z,2.72
2022-11-29T09:36:28.499Z,2.90
2022-11-29T09:38:57.096Z,2.80
2022-11-29T09:42:01.798Z,3.28
2022-11-29T09:44:28.464Z,2.92
2022-11-29T09:47:18.804Z,3.00
2022-11-29T09:49:52.381Z,2.92
2022-11-29T09:52:43.003Z,3.05
2022-11-29T09:55:40.820Z,3.10
2022-11-29T10:00:48.169Z,2.92
2022-11-29T10:03:38.198Z,3.20
2022-11-29T10:06:17.888Z,3.10
2022-11-29T10:08:51.653Z,2.90
2022-11-29T10:11:25.164Z,2.85
2022-11-29T10:14:01.312Z,2.97
2022-11-29T10:16:43.250Z,2.88
2022-11-29T10:19:28.153Z,2.90
2022-11-29T10:22:06.326Z,2.78
2022-11-29T10:24:34.714Z,3.38
2022-11-29T10:27:01.747Z,3.20
2022-11-29T10:29:28.587Z,3.00
2022-11-29T10:31:56.830Z,2.97
2022-11-29T10:34:26.192Z,3.00
2022-11-29T10:37:02.308Z,2.92
2022-11-29T10:39:46.830Z,2.72
2022-11-29T10:42:37.426Z,2.92
2022-11-29T10:45:10.853Z,2.80
2022-11-29T10:47:37.597Z,2.85
2022-11-29T10:50:04.658Z,3.40
2022-11-29T10:52:31.400Z,4.18
2022-11-29T10:54:59.470Z,5.03
2022-11-29T10:57:26.587Z,6.78
2022-11-29T11:16:27.002Z,7.13
2022-11-29T11:18:54.495Z,5.97
2022-11-29T11:21:25.733Z,5.72
2022-11-29T11:24:01.944Z,5.43
2022-11-29T11:26:42.467Z,4.80
2022-11-29T11:29:41.207Z,5.10
2022-11-29T11:32:18.611Z,4.35
2022-11-29T11:34:57.046Z,4.68
2022-11-29T11:37:35.823Z,4.88
2022-11-29T11:40:41.158Z,4.60
2022-11-29T11:43:20.886Z,4.38
2022-11-29T11:45:54.946Z,4.95
2022-11-29T11:48:22.323Z,4.93
2022-11-29T11:50:58.263Z,4.53
2022-11-29T11:53:37.367Z,4.78
2022-11-29T11:56:10.805Z,4.13
2022-11-29T11:58:50.296Z,4.60
2022-11-29T12:01:38.745Z,4.25
2022-11-29T12:04:11.306Z,4.32
2022-11-29T12:06:56.043Z,4.57
2022-11-29T12:09:46.616Z,4.20
2022-11-29T12:12:27.289Z,4.50
2022-11-29T12:14:59.646Z,4.00
2022-11-29T12:17:41.481Z,4.25
2022-11-29T12:20:11.279Z,3.95
2022-11-29T12:22:48.627Z,4.30
2022-11-29T12:25:24.296Z,3.80
2022-11-29T12:27:51.303Z,4.13
2022-11-29T12:30:19.370Z,4.10
2022-11-29T12:32:54.316Z,3.90
2022-11-29T12:35:45.779Z,3.92
2022-11-29T12:38:35.346Z,3.60
2022-11-29T12:41:26.854Z,4.03
2022-11-29T12:43:59.988Z,3.65
2022-11-29T12:46:28.945Z,4.07
2022-11-29T12:49:01.408Z,3.80
2022-11-29T12:51:32.939Z,3.42
2022-11-29T12:54:18.543Z,3.85
2022-11-29T12:56:48.351Z,3.60
2022-11-29T12:59:47.808Z,3.47
2022-11-29T13:02:27.861Z,4.25
2022-11-29T13:05:24.271Z,6.40
2022-11-29T13:08:10.276Z,5.03
2022-11-29T13:10:37.407Z,4.28
2022-11-29T13:13:31.740Z,4.57
2022-11-29T13:16:09.390Z,4.03
2022-11-29T13:19:07.156Z,4.35
2022-11-29T13:24:28.795Z,4.10
2022-11-29T13:26:56.422Z,6.88
2022-11-29T13:29:24.518Z,9.20
2022-11-29T13:34:36.577Z,9.83
2022-11-29T13:37:28.671Z,10.55
2022-11-29T13:40:24.167Z,9.70
2022-11-29T13:43:23.496Z,9.48
2022-11-29T13:46:01.924Z,12.52
2022-11-29T13:48:28.644Z,14.18
2022-11-29T13:50:57.058Z,13.80
2022-11-29T13:53:25.719Z,14.40
2022-11-29T13:56:01.270Z,15.88
2022-11-29T13:58:27.996Z,16.42
2022-11-29T14:01:12.014Z,15.77
2022-11-29T14:03:50.303Z,15.70
2022-11-29T14:06:21.873Z,17.35
2022-11-29T14:11:49.156Z,17.27
2022-11-29T14:14:15.837Z,14.98
2022-11-29T14:16:42.959Z,15.63
2022-11-29T14:19:09.958Z,14.57
2022-11-29T14:22:04.572Z,15.02
2022-11-29T14:24:34.405Z,13.95
2022-11-29T14:27:07.036Z,15.75
2022-11-29T14:29:49.035Z,15.57
2022-11-29T14:32:42.802Z,14.18
2022-11-29T14:35:12.650Z,15.00
2022-11-29T14:37:42.881Z,14.48
2022-11-29T14:40:41.998Z,15.27
2022-11-29T14:43:38.275Z,13.63
2022-11-29T14:46:17.103Z,13.63
2022-11-29T14:48:58.973Z,15.38
2022-11-29T14:51:31.809Z,15.13
2022-11-29T14:54:20.120Z,14.48
2022-11-29T14:56:47.438Z,15.38
2022-11-29T14:59:47.509Z,14.75
2022-11-29T15:02:35.812Z,15.50
2022-11-29T15:05:15.450Z,12.57
2022-11-29T15:07:47.322Z,11.50
2022-11-29T15:10:20.112Z,10.45
2022-11-29T15:12:48.613Z,9.68
2022-11-29T15:15:40.716Z,9.65
2022-11-29T15:18:33.479Z,9.30
2022-11-29T15:21:28.498Z,8.90
2022-11-29T15:24:12.904Z,8.20
2022-11-29T15:26:54.274Z,7.78
2022-11-29T15:29:21.520Z,7.88
2022-11-29T15:32:00.729Z,14.98
2022-11-29T15:34:50.181Z,19.08
2022-11-29T15:37:32.236Z,12.65
2022-11-29T15:40:12.066Z,10.55
2022-11-29T15:42:47.096Z,9.88
2022-11-29T15:45:35.228Z,9.15
2022-11-29T15:48:13.989Z,9.02
2022-11-29T15:50:50.104Z,8.57
2022-11-29T15:53:23.211Z,8.30
2022-11-29T15:55:52.566Z,8.02
2022-11-29T15:58:20.428Z,8.20
2022-11-29T16:00:50.797Z,8.05
2022-11-29T16:03:30.703Z,7.60
2022-11-29T16:06:06.681Z,7.50
2022-11-29T16:08:38.127Z,7.07
2022-11-29T16:11:06.799Z,7.43
2022-11-29T16:13:38.311Z,7.00
2022-11-29T16:16:19.136Z,7.13
2022-11-29T16:18:47.967Z,6.93
2022-11-29T16:21:31.887Z,6.38
2022-11-29T16:24:10.526Z,7.07
2022-11-29T16:26:44.027Z,7.00
2022-11-29T16:29:49.957Z,6.68
2022-11-29T16:32:48.527Z,6.55
2022-11-29T16:35:22.373Z,5.78
2022-11-29T16:37:49.424Z,6.45
2022-11-29T16:40:24.074Z,6.45
2022-11-29T16:43:07.768Z,6.38
2022-11-29T16:45:39.165Z,5.88
2022-11-29T16:48:25.497Z,6.22
2022-11-29T16:51:10.815Z,5.85
2022-11-29T16:53:39.616Z,5.60
2022-11-29T16:56:10.185Z,6.28
2022-11-29T16:59:16.710Z,5.50
2022-11-29T17:01:25.049Z,5.53
2022-11-29T17:03:53.122Z,5.82
2022-11-29T17:06:24.868Z,6.13
2022-11-29T17:08:53.828Z,6.05
2022-11-29T17:11:20.535Z,5.78
2022-11-29T17:13:50.295Z,6.00
2022-11-29T17:16:19.827Z,5.57
2022-11-29T17:18:46.839Z,5.15
2022-11-29T17:21:29.414Z,5.32
2022-11-29T17:23:56.110Z,5.35
2022-11-29T17:26:23.722Z,5.50
2022-11-29T17:28:52.278Z,5.63
2022-11-29T17:31:22.253Z,5.30
2022-11-29T17:33:49.253Z,5.32
2022-11-29T17:36:19.282Z,5.05
2022-11-29T17:38:46.408Z,5.18
2022-11-29T17:41:15.671Z,5.55
2022-11-29T17:43:42.482Z,5.35
2022-11-29T17:46:12.071Z,5.25
2022-11-29T17:48:38.959Z,4.65
2022-11-29T17:51:17.245Z,5.60
2022-11-29T17:53:53.874Z,5.20
2022-11-29T17:56:23.216Z,4.63
2022-11-29T17:58:57.630Z,5.00
2022-11-29T18:01:29.155Z,5.57
2022-11-29T18:03:58.494Z,4.68
2022-11-29T18:06:27.586Z,4.78
2022-11-29T18:08:57.859Z,5.20
2022-11-29T18:11:27.832Z,5.03
2022-11-29T18:13:56.224Z,4.88
2022-11-29T18:16:31.761Z,4.70
2022-11-29T18:19:04.559Z,5.10
2022-11-29T18:21:32.258Z,4.63
2022-11-29T18:24:00.506Z,5.13
2022-11-29T18:26:29.126Z,4.65
2022-11-29T18:28:58.987Z,5.00
2022-11-29T18:31:30.724Z,4.50
2022-11-29T18:33:59.712Z,4.72
2022-11-29T18:36:31.691Z,4.38
2022-11-29T18:39:01.093Z,4.95
2022-11-29T18:41:29.161Z,4.55
2022-11-29T18:44:01.973Z,4.65
2022-11-29T18:46:36.638Z,4.40
2022-11-29T18:49:05.747Z,4.40
2022-11-29T18:51:32.792Z,4.75
2022-11-29T18:54:00.635Z,4.63
2022-11-29T18:56:29.861Z,4.50
2022-11-29T18:59:10.128Z,4.80
2022-11-29T19:01:41.230Z,4.65
2022-11-29T19:04:14.150Z,4.35
2022-11-29T19:06:41.542Z,4.50
2022-11-29T19:09:13.156Z,3.97
2022-11-29T19:11:40.377Z,4.25
2022-11-29T19:14:12.911Z,4.43
2022-11-29T19:16:45.503Z,4.30
2022-11-29T19:19:13.076Z,4.25
2022-11-29T19:21:40.392Z,4.53
2022-11-29T19:24:13.688Z,4.53
2022-11-29T19:26:42.151Z,4.32
2022-11-29T19:31:42.263Z,4.57
2022-11-29T19:34:08.987Z,4.57
2022-11-29T19:36:42.316Z,4.13
2022-11-29T19:39:10.123Z,4.55
2022-11-29T19:41:37.781Z,4.32
2022-11-29T19:44:07.940Z,4.60
2022-11-29T19:46:44.302Z,4.57
2022-11-29T19:49:14.112Z,4.30
2022-11-29T19:51:43.154Z,4.35
2022-11-29T19:54:10.669Z,4.28
2022-11-29T19:56:38.939Z,4.25
2022-11-29T19:59:07.576Z,4.40
2022-11-29T20:01:40.744Z,4.60
2022-11-29T20:04:10.768Z,4.75
2022-11-29T20:06:38.587Z,4.45
2022-11-29T20:09:06.431Z,4.18
2022-11-29T20:11:33.305Z,4.20
2022-11-29T20:14:02.718Z,4.40
2022-11-29T20:16:31.460Z,4.07
2022-11-29T20:18:59.028Z,3.75
2022-11-29T20:21:31.571Z,4.72
2022-11-29T20:24:00.938Z,4.72
2022-11-29T20:26:28.711Z,4.57
2022-11-29T20:28:55.753Z,4.90
2022-11-29T20:31:23.419Z,4.57
2022-11-29T20:33:52.629Z,4.22
2022-11-29T20:36:34.660Z,4.65
2022-11-29T20:39:22.767Z,4.30
2022-11-29T20:42:08.173Z,4.32
2022-11-29T20:44:44.160Z,4.47
2022-11-29T20:47:19.409Z,4.53
2022-11-29T20:49:46.685Z,4.40
2022-11-29T20:52:42.932Z,4.57
2022-11-29T20:55:09.939Z,4.57
2022-11-29T20:57:38.400Z,4.43
2022-11-29T21:00:11.354Z,4.20
2022-11-29T21:02:39.096Z,4.38
2022-11-29T21:05:06.767Z,4.38
2022-11-29T21:07:33.792Z,4.13
2022-11-29T21:10:02.863Z,4.60
2022-11-29T21:12:30.296Z,4.20
2022-11-29T21:14:57.807Z,4.43
2022-11-29T21:17:30.229Z,4.60
2022-11-29T21:20:00.253Z,4.18
2022-11-29T21:23:02.053Z,4.15
2022-11-29T21:25:54.354Z,4.35
2022-11-29T21:28:29.335Z,3.88
2022-11-29T21:30:56.787Z,4.25
2022-11-29T21:33:23.860Z,4.30
2022-11-29T21:35:56.135Z,3.88
2022-11-29T21:38:25.573Z,4.13
2022-11-29T21:40:52.308Z,4.68
2022-11-29T21:43:20.724Z,4.18
2022-11-29T21:45:49.511Z,4.30
2022-11-29T21:48:34.671Z,5.10
2022-11-29T21:51:03.150Z,4.50
2022-11-29T21:53:30.373Z,4.30
2022-11-29T21:56:03.708Z,4.15
2022-11-29T21:58:32.232Z,4.38
2022-11-29T22:01:06.944Z,4.30
2022-11-29T22:03:33.774Z,4.10
2022-11-29T22:06:05.761Z,4.55
2022-11-29T22:08:38.885Z,4.13
2022-11-29T22:11:11.714Z,4.28
2022-11-29T22:13:58.198Z,4.32
2022-11-29T22:16:25.431Z,4.53
2022-11-29T22:18:52.386Z,4.50
2022-11-29T22:21:19.451Z,4.38
2022-11-29T22:23:46.443Z,4.20
2022-11-29T22:26:16.217Z,4.50
2022-11-29T22:28:42.937Z,4.53
2022-11-29T22:31:11.431Z,4.18
2022-11-29T22:33:38.856Z,4.28
2022-11-29T22:36:11.816Z,4.30
2022-11-29T22:38:39.956Z,4.45
2022-11-29T22:43:35.964Z,4.15
2022-11-29T22:46:20.765Z,4.30
2022-11-29T22:48:50.760Z,4.50
2022-11-29T22:51:20.407Z,4.25
2022-11-29T22:53:52.753Z,4.30
2022-11-29T22:56:20.816Z,4.55
2022-11-29T22:58:47.579Z,4.20
2022-11-29T23:01:17.205Z,4.40
2022-11-29T23:03:51.833Z,4.25
2022-11-29T23:06:24.978Z,4.45
2022-11-29T23:08:53.514Z,4.40
2022-11-29T23:11:23.240Z,4.25
2022-11-29T23:13:50.154Z,4.60
2022-11-29T23:16:19.597Z,4.28
2022-11-29T23:18:46.863Z,4.25
2022-11-29T23:21:19.963Z,4.10
2022-11-29T23:23:50.292Z,4.40
2022-11-29T23:26:28.684Z,4.35
2022-11-29T23:28:56.007Z,4.90
2022-11-29T23:31:26.514Z,4.43
2022-11-29T23:33:53.606Z,4.65
2022-11-29T23:36:20.596Z,4.15
2022-11-29T23:38:47.509Z,4.47
2022-11-29T23:41:14.851Z,4.38
2022-11-29T23:43:42.140Z,4.57
2022-11-29T23:46:20.389Z,4.23
2022-11-29T23:48:47.374Z,4.60
2022-11-29T23:51:15.451Z,4.63
2022-11-29T23:53:42.850Z,4.38
2022-11-29T23:56:17.364Z,4.38
2022-11-29T23:58:44.676Z,4.30
